createdAt,value
2023-04-08T00:00:52.639Z,24.80
2023-04-08T00:03:21.927Z,24.05
2023-04-08T00:05:49.344Z,29.15
2023-04-08T00:08:17.469Z,25.02
2023-04-08T00:10:44.755Z,28.45
2023-04-08T00:13:12.008Z,28.73
2023-04-08T00:15:42.094Z,32.75
2023-04-08T00:18:09.415Z,28.77
2023-04-08T00:20:37.224Z,28.85
2023-04-08T00:23:04.660Z,29.05
2023-04-08T00:25:31.951Z,32.42
2023-04-08T00:28:00.400Z,39.28
2023-04-08T00:30:28.171Z,28.60
2023-04-08T00:32:55.472Z,33.22
2023-04-08T00:35:23.422Z,35.67
2023-04-08T00:37:51.200Z,29.63
2023-04-08T00:40:22.400Z,29.13
2023-04-08T00:42:49.742Z,32.75
2023-04-08T00:45:16.964Z,38.90
2023-04-08T00:47:44.243Z,35.22
2023-04-08T00:50:11.870Z,36.53
2023-04-08T00:52:39.260Z,32.35
2023-04-08T00:55:07.220Z,27.52
2023-04-08T00:57:34.466Z,33.30
2023-04-08T01:00:01.776Z,37.80
2023-04-08T01:05:39.012Z,31.98
2023-04-08T01:08:07.173Z,33.90
2023-04-08T01:10:38.206Z,34.63
2023-04-08T01:13:08.414Z,34.92
2023-04-08T01:15:36.866Z,41.83
2023-04-08T01:18:06.925Z,31.95
2023-04-08T01:20:34.322Z,31.90
2023-04-08T01:23:02.158Z,26.63
2023-04-08T01:25:33.887Z,37.60
2023-04-08T01:28:02.131Z,30.15
2023-04-08T01:30:30.672Z,29.83
2023-04-08T01:32:58.133Z,31.52
2023-04-08T01:35:25.526Z,28.35
2023-04-08T01:37:52.800Z,31.10
2023-04-08T01:40:20.529Z,28.40
2023-04-08T01:42:48.979Z,24.75
2023-04-08T01:45:16.452Z,27.77
2023-04-08T01:47:45.083Z,22.45
2023-04-08T01:50:12.394Z,26.20
2023-04-08T01:52:39.976Z,33.33
2023-04-08T01:55:07.682Z,28.80
2023-04-08T01:57:36.627Z,24.30
2023-04-08T02:00:07.008Z,24.27
2023-04-08T02:02:42.916Z,22.85
2023-04-08T02:05:10.588Z,21.40
2023-04-08T02:07:38.383Z,22.85
2023-04-08T02:10:09.452Z,23.88
2023-04-08T02:12:37.620Z,18.38
2023-04-08T02:15:05.751Z,18.83
2023-04-08T02:17:51.100Z,16.83
2023-04-08T02:20:35.552Z,15.55
2023-04-08T02:23:09.636Z,18.30
2023-04-08T02:25:38.899Z,19.13
2023-04-08T02:28:07.050Z,16.23
2023-04-08T02:30:42.475Z,16.95
2023-04-08T02:33:11.904Z,15.75
2023-04-08T02:35:39.221Z,16.08
2023-04-08T02:38:06.566Z,17.10
2023-04-08T02:40:35.514Z,14.40
2023-04-08T02:43:02.852Z,21.48
2023-04-08T02:45:42.816Z,21.33
2023-04-08T02:48:10.280Z,17.85
2023-04-08T02:50:38.224Z,25.88
2023-04-08T02:53:06.248Z,19.33
2023-04-08T02:55:34.079Z,22.50
2023-04-08T02:58:01.352Z,19.65
2023-04-08T03:00:34.584Z,22.92
2023-04-08T03:03:17.619Z,18.92
2023-04-08T03:05:45.650Z,19.20
2023-04-08T03:08:13.015Z,21.05
2023-04-08T03:10:40.408Z,22.73
2023-04-08T03:13:08.650Z,25.08
2023-04-08T03:15:36.051Z,26.60
2023-04-08T03:18:04.901Z,21.83
2023-04-08T03:20:32.465Z,24.17
2023-04-08T03:23:00.616Z,24.90
2023-04-08T03:25:29.273Z,27.67
2023-04-08T03:27:57.976Z,31.83
2023-04-08T03:30:25.852Z,22.73
2023-04-08T03:32:54.528Z,34.42
2023-04-08T03:35:22.236Z,31.48
2023-04-08T03:37:49.804Z,47.90
2023-04-08T03:40:17.102Z,44.88
2023-04-08T03:42:44.481Z,42.90
2023-04-08T03:45:11.701Z,37.60
2023-04-08T03:47:39.882Z,37.83
2023-04-08T03:50:07.688Z,32.05
2023-04-08T03:52:34.958Z,39.17
2023-04-08T03:55:02.520Z,36.58
2023-04-08T03:57:30.054Z,31.90
2023-04-08T03:59:57.981Z,26.85
2023-04-08T04:02:25.587Z,27.67
2023-04-08T04:04:53.049Z,21.63
2023-04-08T04:07:20.657Z,22.58
2023-04-08T04:09:47.868Z,23.45
2023-04-08T04:12:15.147Z,22.95
2023-04-08T04:14:46.715Z,26.05
2023-04-08T04:17:14.405Z,27.17
2023-04-08T04:19:42.327Z,18.25
2023-04-08T04:22:16.735Z,16.35
2023-04-08T04:24:48.428Z,20.63
2023-04-08T04:27:17.675Z,14.00
2023-04-08T04:29:45.887Z,20.50
2023-04-08T04:32:15.012Z,22.15
2023-04-08T04:34:42.445Z,12.40
2023-04-08T04:37:09.792Z,24.25
2023-04-08T04:39:44.357Z,18.73
2023-04-08T04:42:11.953Z,19.27
2023-04-08T04:44:39.230Z,19.83
2023-04-08T04:47:06.452Z,19.40
2023-04-08T04:49:33.812Z,18.10
2023-04-08T04:52:02.115Z,16.42
2023-04-08T04:54:31.993Z,26.38
2023-04-08T04:56:59.195Z,18.73
2023-04-08T04:59:35.106Z,20.63
2023-04-08T05:02:03.040Z,19.23
2023-04-08T05:04:30.529Z,17.30
2023-04-08T05:07:02.327Z,14.02
2023-04-08T05:09:30.873Z,18.02
2023-04-08T05:11:58.109Z,13.93
2023-04-08T05:14:26.060Z,11.45
2023-04-08T05:16:54.192Z,15.25
2023-04-08T05:19:21.619Z,14.63
2023-04-08T05:21:53.684Z,15.25
2023-04-08T05:24:21.838Z,15.73
2023-04-08T05:26:52.324Z,15.55
2023-04-08T05:29:21.996Z,15.95
2023-04-08T05:31:49.479Z,19.33
2023-04-08T05:34:22.837Z,10.73
2023-04-08T05:36:53.141Z,18.40
2023-04-08T05:39:25.914Z,14.00
2023-04-08T05:41:53.301Z,20.80
2023-04-08T05:44:20.701Z,21.60
2023-04-08T05:46:49.357Z,19.77
2023-04-08T05:49:17.506Z,23.45
2023-04-08T05:51:47.498Z,16.98
2023-04-08T05:54:14.810Z,21.15
2023-04-08T05:56:46.360Z,23.80
2023-04-08T05:59:13.750Z,18.70
2023-04-08T06:01:41.031Z,21.25
2023-04-08T06:04:08.663Z,20.63
2023-04-08T06:06:38.866Z,25.02
2023-04-08T06:09:06.201Z,15.20
2023-04-08T06:11:34.719Z,17.17
2023-04-08T06:14:03.514Z,18.05
2023-04-08T06:16:31.135Z,11.50
2023-04-08T06:18:58.417Z,14.23
2023-04-08T06:21:26.526Z,12.80
2023-04-08T06:23:53.826Z,13.02
2023-04-08T06:26:21.696Z,19.08
2023-04-08T06:28:49.204Z,9.73
2023-04-08T06:31:17.416Z,8.85
2023-04-08T06:33:47.446Z,10.73
2023-04-08T06:36:14.769Z,7.22
2023-04-08T06:38:42.212Z,7.30
2023-04-08T06:41:09.447Z,8.02
2023-04-08T06:43:38.007Z,7.47
2023-04-08T06:46:05.476Z,9.05
2023-04-08T06:48:33.228Z,10.60
2023-04-08T06:51:01.299Z,9.35
2023-04-08T06:53:33.470Z,7.03
2023-04-08T06:56:00.868Z,9.43
2023-04-08T06:58:29.856Z,11.50
2023-04-08T07:00:57.460Z,13.85
2023-04-08T07:03:25.727Z,8.05
2023-04-08T07:05:53.425Z,11.10
2023-04-08T07:08:20.684Z,8.93
2023-04-08T07:10:49.069Z,10.55
2023-04-08T07:13:17.489Z,9.98
2023-04-08T07:15:45.102Z,10.55
2023-04-08T07:18:13.576Z,11.95
2023-04-08T07:20:42.062Z,8.00
2023-04-08T07:23:12.058Z,10.90
2023-04-08T07:25:40.937Z,6.93
2023-04-08T07:28:08.220Z,8.10
2023-04-08T07:30:35.888Z,7.15
2023-04-08T07:33:03.261Z,7.75
2023-04-08T07:35:38.334Z,15.02
2023-04-08T07:38:11.416Z,19.90
2023-04-08T07:40:38.718Z,12.75
2023-04-08T07:43:06.302Z,12.73
2023-04-08T07:45:33.656Z,10.32
2023-04-08T07:48:03.271Z,14.25
2023-04-08T07:50:30.648Z,8.93
2023-04-08T07:53:02.709Z,14.63
2023-04-08T07:55:36.639Z,9.68
2023-04-08T07:58:04.157Z,9.52
2023-04-08T08:00:33.155Z,11.02
2023-04-08T08:03:14.476Z,12.25
2023-04-08T08:05:41.875Z,10.70
2023-04-08T08:08:11.805Z,11.13
2023-04-08T08:10:39.599Z,10.38
2023-04-08T08:13:07.186Z,8.38
2023-04-08T08:15:34.798Z,5.93
2023-04-08T08:18:02.818Z,8.15
2023-04-08T08:20:30.106Z,6.72
2023-04-08T08:22:58.441Z,4.68
2023-04-08T08:25:26.404Z,3.63
2023-04-08T08:27:55.508Z,4.45
2023-04-08T08:30:23.064Z,4.05
2023-04-08T08:32:52.223Z,5.45
2023-04-08T08:35:19.859Z,5.35
2023-04-08T08:37:47.232Z,12.82
2023-04-08T08:40:14.472Z,8.52
2023-04-08T08:42:52.330Z,9.23
2023-04-08T08:45:20.451Z,4.93
2023-04-08T08:47:50.356Z,3.78
2023-04-08T08:50:19.086Z,7.83
2023-04-08T08:52:52.810Z,6.55
2023-04-08T08:55:36.283Z,4.88
2023-04-08T08:58:07.609Z,12.90
2023-04-08T09:00:42.435Z,7.53
2023-04-08T09:03:20.165Z,4.63
2023-04-08T09:06:06.283Z,6.43
2023-04-08T09:08:34.890Z,6.20
2023-04-08T09:11:18.873Z,9.65
2023-04-08T09:13:49.703Z,6.53
2023-04-08T09:16:18.942Z,6.68
2023-04-08T09:18:47.371Z,5.10
2023-04-08T09:21:18.538Z,4.72
2023-04-08T09:23:46.349Z,8.05
2023-04-08T09:26:24.209Z,10.23
2023-04-08T09:29:18.385Z,8.00
2023-04-08T09:31:58.567Z,10.20
2023-04-08T09:34:27.479Z,6.35
2023-04-08T09:36:55.723Z,8.55
2023-04-08T09:39:23.572Z,8.38
2023-04-08T09:41:51.823Z,10.70
2023-04-08T09:44:21.025Z,11.02
2023-04-08T09:46:52.760Z,10.23
2023-04-08T09:49:34.529Z,8.60
2023-04-08T09:52:21.390Z,9.70
2023-04-08T09:54:55.332Z,4.63
2023-04-08T09:57:28.731Z,7.10
2023-04-08T10:00:05.540Z,6.25
2023-04-08T10:03:02.449Z,8.15
2023-04-08T10:05:29.997Z,6.65
2023-04-08T10:07:58.000Z,8.57
2023-04-08T10:10:26.109Z,4.95
2023-04-08T10:12:57.722Z,7.22
2023-04-08T10:15:29.629Z,8.63
2023-04-08T10:18:20.664Z,9.60
2023-04-08T10:20:52.361Z,7.50
2023-04-08T10:23:21.202Z,6.00
2023-04-08T10:25:48.883Z,4.80
2023-04-08T10:28:18.915Z,8.98
2023-04-08T10:31:06.983Z,8.77
2023-04-08T10:33:40.874Z,6.57
2023-04-08T10:36:12.616Z,9.57
2023-04-08T10:38:42.222Z,8.98
2023-04-08T10:41:11.204Z,9.50
2023-04-08T10:43:38.509Z,10.13
2023-04-08T10:46:10.651Z,9.00
2023-04-08T10:48:38.149Z,9.70
2023-04-08T10:51:06.559Z,8.52
2023-04-08T10:53:37.697Z,11.65
2023-04-08T10:56:17.884Z,6.70
2023-04-08T10:58:50.063Z,8.63
2023-04-08T11:01:17.540Z,13.68
2023-04-08T11:03:45.129Z,9.23
2023-04-08T11:06:14.295Z,7.97
2023-04-08T11:08:41.699Z,9.15
2023-04-08T11:11:10.662Z,12.55
2023-04-08T11:13:42.948Z,8.65
2023-04-08T11:16:18.505Z,9.02
2023-04-08T11:18:46.250Z,10.45
2023-04-08T11:21:15.272Z,8.23
2023-04-08T11:23:43.594Z,7.95
2023-04-08T11:26:11.497Z,5.85
2023-04-08T11:28:38.861Z,6.63
2023-04-08T11:31:06.521Z,7.03
2023-04-08T11:33:38.996Z,8.85
2023-04-08T11:36:06.367Z,9.77
2023-04-08T11:38:33.631Z,8.13
2023-04-08T11:41:02.342Z,9.52
2023-04-08T11:43:31.007Z,12.30
2023-04-08T11:46:00.054Z,6.57
2023-04-08T11:48:28.820Z,7.50
2023-04-08T11:51:03.948Z,13.02
2023-04-08T11:53:32.203Z,15.68
2023-04-08T11:56:18.998Z,8.07
2023-04-08T11:58:47.848Z,5.65
2023-04-08T12:01:15.580Z,7.20
2023-04-08T12:03:59.995Z,9.55
2023-04-08T12:06:28.508Z,11.75
2023-04-08T12:08:58.019Z,9.48
2023-04-08T12:11:25.279Z,9.23
2023-04-08T12:13:53.717Z,7.28
2023-04-08T12:16:21.756Z,6.47
2023-04-08T12:18:50.240Z,7.85
2023-04-08T12:21:17.862Z,5.85
2023-04-08T12:23:45.578Z,7.00
2023-04-08T12:26:16.673Z,6.93
2023-04-08T12:28:44.917Z,9.48
2023-04-08T12:31:12.489Z,8.55
2023-04-08T12:33:40.353Z,7.78
2023-04-08T12:36:07.953Z,5.13
2023-04-08T12:38:35.518Z,3.50
2023-04-08T12:41:02.866Z,6.05
2023-04-08T12:43:32.850Z,4.38
2023-04-08T12:46:05.015Z,6.18
2023-04-08T12:48:33.921Z,9.85
2023-04-08T12:51:01.262Z,9.73
2023-04-08T12:53:28.513Z,7.85
2023-04-08T12:55:57.430Z,7.82
2023-04-08T12:58:25.917Z,6.28
2023-04-08T13:00:53.356Z,9.20
2023-04-08T13:03:21.637Z,9.63
2023-04-08T13:05:49.346Z,10.10
2023-04-08T13:08:17.704Z,6.60
2023-04-08T13:10:53.225Z,8.18
2023-04-08T13:13:22.121Z,13.57
2023-04-08T13:15:49.582Z,9.93
2023-04-08T13:18:18.609Z,11.70
2023-04-08T13:20:46.468Z,14.95
2023-04-08T13:23:15.312Z,14.25
2023-04-08T13:25:42.706Z,13.82
2023-04-08T13:28:11.639Z,20.48
2023-04-08T13:30:40.561Z,14.13
2023-04-08T13:33:08.261Z,18.08
2023-04-08T13:35:35.535Z,17.27
2023-04-08T13:38:03.484Z,19.15
2023-04-08T13:40:31.885Z,16.95
2023-04-08T13:43:00.682Z,12.88
2023-04-08T13:45:29.144Z,11.15
2023-04-08T13:47:56.913Z,10.23
2023-04-08T13:50:25.946Z,9.48
2023-04-08T13:52:53.359Z,11.63
2023-04-08T13:55:22.338Z,12.55
2023-04-08T13:57:49.713Z,11.50
2023-04-08T14:00:20.878Z,10.82
2023-04-08T14:03:06.984Z,15.02
2023-04-08T14:05:34.499Z,8.32
2023-04-08T14:08:01.913Z,11.68
2023-04-08T14:10:29.318Z,9.93
2023-04-08T14:12:56.553Z,9.20
2023-04-08T14:15:24.963Z,11.38
2023-04-08T14:17:52.421Z,9.80
2023-04-08T14:20:20.101Z,11.55
2023-04-08T14:22:48.739Z,8.98
2023-04-08T14:25:16.121Z,16.35
2023-04-08T14:27:56.817Z,9.05
2023-04-08T14:30:26.942Z,6.07
2023-04-08T14:32:55.576Z,7.38
2023-04-08T14:35:23.025Z,6.15
2023-04-08T14:37:50.460Z,6.55
2023-04-08T14:40:18.058Z,6.15
2023-04-08T14:42:46.454Z,7.57
2023-04-08T14:45:13.748Z,7.20
2023-04-08T14:47:41.700Z,5.05
2023-04-08T14:50:09.398Z,6.03
2023-04-08T14:52:37.606Z,10.77
2023-04-08T14:55:09.584Z,12.90
2023-04-08T14:57:36.803Z,9.25
2023-04-08T15:00:04.639Z,6.28
2023-04-08T15:02:33.873Z,9.93
2023-04-08T15:05:01.400Z,8.82
2023-04-08T15:07:29.987Z,11.40
2023-04-08T15:09:57.242Z,8.10
2023-04-08T15:12:24.867Z,10.15
2023-04-08T15:14:52.934Z,8.15
2023-04-08T15:17:20.475Z,6.63
2023-04-08T15:19:47.734Z,8.20
2023-04-08T15:22:16.100Z,6.95
2023-04-08T15:24:44.097Z,5.55
2023-04-08T15:27:19.699Z,5.35
2023-04-08T15:29:47.687Z,6.25
2023-04-08T15:32:14.896Z,4.85
2023-04-08T15:34:43.820Z,9.05
2023-04-08T15:37:11.725Z,5.30
2023-04-08T15:39:41.542Z,5.20
2023-04-08T15:42:09.497Z,10.53
2023-04-08T15:44:36.873Z,4.35
2023-04-08T15:47:04.611Z,4.07
2023-04-08T15:49:32.351Z,3.58
2023-04-08T15:51:59.771Z,5.20
2023-04-08T15:54:28.889Z,7.97
2023-04-08T15:56:58.328Z,9.52
2023-04-08T15:59:25.802Z,5.68
2023-04-08T16:02:13.056Z,8.10
2023-04-08T16:04:41.478Z,10.30
2023-04-08T16:07:08.731Z,7.72
2023-04-08T16:09:36.137Z,9.15
2023-04-08T16:12:05.551Z,11.13
2023-04-08T16:14:34.054Z,9.38
2023-04-08T16:17:01.398Z,12.02
2023-04-08T16:19:33.470Z,10.75
2023-04-08T16:22:00.724Z,9.93
2023-04-08T16:24:28.388Z,9.68
2023-04-08T16:26:57.705Z,15.35
2023-04-08T16:29:25.297Z,13.35
2023-04-08T16:31:57.331Z,13.85
2023-04-08T16:34:24.573Z,11.90
2023-04-08T16:36:51.952Z,13.57
2023-04-08T16:39:19.198Z,15.02
2023-04-08T16:41:46.444Z,14.05
2023-04-08T16:44:14.759Z,20.13
2023-04-08T16:46:43.129Z,13.82
2023-04-08T16:49:12.355Z,14.77
2023-04-08T16:51:41.282Z,11.43
2023-04-08T16:54:08.510Z,11.20
2023-04-08T16:56:36.247Z,15.35
2023-04-08T16:59:03.588Z,11.55
2023-04-08T17:01:30.998Z,9.85
2023-04-08T17:03:58.555Z,8.88
2023-04-08T17:06:27.509Z,13.63
2023-04-08T17:08:54.768Z,11.07
2023-04-08T17:11:22.461Z,13.38
2023-04-08T17:13:49.902Z,10.95
2023-04-08T17:16:20.285Z,11.47
2023-04-08T17:18:48.005Z,7.57
2023-04-08T17:21:15.731Z,9.88
2023-04-08T17:23:44.951Z,9.02
2023-04-08T17:26:12.883Z,7.75
2023-04-08T17:28:40.231Z,8.02
2023-04-08T17:31:10.830Z,5.45
2023-04-08T17:33:38.847Z,18.20
2023-04-08T17:36:06.626Z,32.72
2023-04-08T17:38:39.633Z,23.98
2023-04-08T17:41:10.193Z,37.22
2023-04-08T17:43:43.078Z,39.75
2023-04-08T17:46:10.873Z,44.42
2023-04-08T17:48:38.512Z,40.20
2023-04-08T17:51:06.671Z,26.48
2023-04-08T17:53:34.333Z,22.55
2023-04-08T17:56:05.852Z,20.63
2023-04-08T17:58:33.550Z,15.93
2023-04-08T18:01:00.756Z,19.80
2023-04-08T18:03:28.128Z,24.70
2023-04-08T18:05:55.446Z,19.48
2023-04-08T18:08:22.753Z,12.55
2023-04-08T18:10:51.261Z,12.25
2023-04-08T18:13:18.724Z,11.35
2023-04-08T18:15:46.265Z,11.68
2023-04-08T18:18:18.480Z,9.60
2023-04-08T18:20:45.938Z,11.40
2023-04-08T18:23:16.074Z,9.10
2023-04-08T18:25:46.329Z,4.93
2023-04-08T18:28:13.560Z,7.80
2023-04-08T18:30:45.357Z,6.60
2023-04-08T18:33:12.737Z,4.70
2023-04-08T18:35:43.304Z,6.60
2023-04-08T18:38:10.849Z,9.23
2023-04-08T18:40:38.133Z,6.50
2023-04-08T18:43:06.051Z,7.15
2023-04-08T18:45:33.391Z,5.25
2023-04-08T18:48:01.047Z,5.45
2023-04-08T18:50:29.724Z,6.80
2023-04-08T18:52:59.094Z,6.95
2023-04-08T18:55:27.881Z,7.25
2023-04-08T18:57:56.986Z,6.93
2023-04-08T19:00:24.406Z,6.90
2023-04-08T19:02:53.646Z,8.85
2023-04-08T19:05:21.457Z,6.72
2023-04-08T19:07:48.693Z,7.35
2023-04-08T19:10:16.133Z,9.35
2023-04-08T19:12:46.621Z,7.40
2023-04-08T19:15:13.923Z,7.68
2023-04-08T19:17:41.760Z,6.57
2023-04-08T19:20:09.277Z,5.13
2023-04-08T19:22:37.223Z,7.35
2023-04-08T19:25:04.839Z,5.47
2023-04-08T19:27:32.468Z,5.05
2023-04-08T19:30:08.192Z,5.40
2023-04-08T19:32:36.369Z,6.70
2023-04-08T19:35:03.897Z,11.73
2023-04-08T19:37:31.746Z,13.75
2023-04-08T19:39:59.070Z,4.90
2023-04-08T19:42:30.568Z,8.45
2023-04-08T19:44:57.795Z,6.60
2023-04-08T19:47:25.582Z,5.38
2023-04-08T19:49:52.877Z,9.63
2023-04-08T19:52:21.007Z,10.75
2023-04-08T19:54:51.569Z,10.52
2023-04-08T19:57:20.587Z,9.00
2023-04-08T19:59:50.570Z,9.27
2023-04-08T20:02:17.962Z,8.02
2023-04-08T20:04:45.932Z,8.10
2023-04-08T20:07:13.676Z,6.53
2023-04-08T20:09:41.378Z,8.40
2023-04-08T20:12:09.121Z,8.65
2023-04-08T20:14:42.070Z,7.13
2023-04-08T20:17:09.405Z,8.75
2023-04-08T20:19:40.314Z,9.45
2023-04-08T20:22:07.729Z,7.72
2023-04-08T20:24:35.653Z,10.82
2023-04-08T20:27:03.009Z,9.95
2023-04-08T20:29:30.629Z,10.30
2023-04-08T20:31:58.106Z,10.93
2023-04-08T20:34:28.622Z,10.35
2023-04-08T20:36:56.452Z,10.80
2023-04-08T20:39:29.530Z,8.55
2023-04-08T20:41:58.223Z,8.95
2023-04-08T20:44:28.422Z,9.38
2023-04-08T20:46:56.600Z,8.55
2023-04-08T20:49:24.858Z,17.10
2023-04-08T20:51:52.145Z,15.30
2023-04-08T20:54:19.638Z,11.90
2023-04-08T20:56:46.868Z,9.68
2023-04-08T20:59:17.324Z,11.07
2023-04-08T21:01:45.317Z,13.63
2023-04-08T21:04:13.415Z,11.73
2023-04-08T21:06:40.684Z,8.63
2023-04-08T21:09:07.914Z,11.98
2023-04-08T21:11:35.479Z,13.98
2023-04-08T21:14:03.936Z,12.10
2023-04-08T21:16:34.452Z,9.73
2023-04-08T21:19:02.101Z,11.85
2023-04-08T21:21:31.685Z,11.10
2023-04-08T21:24:00.612Z,14.27
2023-04-08T21:26:27.909Z,13.93
2023-04-08T21:28:55.851Z,18.08
2023-04-08T21:31:23.158Z,16.08
2023-04-08T21:33:50.721Z,18.02
2023-04-08T21:36:19.041Z,16.70
2023-04-08T21:38:46.353Z,20.77
2023-04-08T21:41:13.573Z,18.90
2023-04-08T21:43:40.816Z,22.60
2023-04-08T21:46:08.780Z,28.92
2023-04-08T21:48:36.098Z,28.98
2023-04-08T21:51:03.599Z,30.60
2023-04-08T21:53:31.318Z,30.80
2023-04-08T21:56:01.311Z,28.25
2023-04-08T21:58:28.573Z,25.65
2023-04-08T22:00:57.750Z,29.00
2023-04-08T22:03:26.648Z,30.15
2023-04-08T22:05:53.947Z,26.98
2023-04-08T22:08:23.147Z,27.85
2023-04-08T22:10:51.830Z,25.80
2023-04-08T22:13:20.556Z,34.58
2023-04-08T22:15:47.836Z,27.42
2023-04-08T22:18:17.653Z,23.83
2023-04-08T22:20:44.905Z,26.13
2023-04-08T22:23:14.967Z,23.50
2023-04-08T22:25:42.697Z,23.95
2023-04-08T22:28:10.337Z,23.13
2023-04-08T22:30:38.511Z,23.42
2023-04-08T22:33:06.677Z,23.88
2023-04-08T22:35:34.834Z,26.27
2023-04-08T22:38:02.187Z,20.52
2023-04-08T22:40:30.068Z,20.13
2023-04-08T22:42:57.449Z,21.95
2023-04-08T22:45:24.850Z,20.80
2023-04-08T22:47:54.308Z,28.52
2023-04-08T22:50:23.165Z,21.23
2023-04-08T22:52:50.559Z,22.92
2023-04-08T22:55:17.916Z,23.08
2023-04-08T22:57:45.304Z,24.60
2023-04-08T23:00:13.122Z,18.52
2023-04-08T23:02:40.941Z,19.25
2023-04-08T23:05:08.956Z,25.95
2023-04-08T23:07:37.090Z,33.50
2023-04-08T23:10:04.821Z,32.00
2023-04-08T23:12:32.622Z,29.30
2023-04-08T23:15:00.237Z,25.60
2023-04-08T23:17:27.576Z,22.33
2023-04-08T23:19:54.978Z,25.13
2023-04-08T23:22:22.734Z,20.92
2023-04-08T23:24:50.585Z,23.13
2023-04-08T23:27:17.799Z,16.85
2023-04-08T23:29:45.067Z,15.77
2023-04-08T23:32:12.384Z,17.48
2023-04-08T23:34:39.717Z,11.52
2023-04-08T23:37:09.296Z,13.95
2023-04-08T23:39:37.498Z,11.90
2023-04-08T23:42:04.936Z,11.20
2023-04-08T23:44:33.709Z,13.07
2023-04-08T23:47:00.996Z,10.10
2023-04-08T23:49:30.141Z,11.13
2023-04-08T23:51:57.618Z,12.18
2023-04-08T23:54:25.112Z,12.40
2023-04-08T23:56:56.247Z,11.93
2023-04-08T23:59:23.620Z,11.63
